createdAt,value
2023-02-28T06:41:36.258Z,44.22
2023-02-28T06:44:07.885Z,37.68
2023-02-28T06:46:34.285Z,38.27
2023-02-28T06:49:00.692Z,40.66
2023-02-28T06:51:27.458Z,42.23
2023-02-28T06:53:54.101Z,43.93
2023-02-28T06:56:20.521Z,45.96
2023-02-28T06:58:46.941Z,47.00
2023-02-28T07:01:13.319Z,48.36
2023-02-28T07:03:39.778Z,48.26
2023-02-28T07:06:06.171Z,48.50
2023-02-28T07:08:32.580Z,49.33
2023-02-28T07:10:58.997Z,50.02
2023-02-28T07:13:25.429Z,49.56
2023-02-28T07:15:52.099Z,49.54
2023-02-28T07:18:18.917Z,50.12
2023-02-28T07:20:45.364Z,51.01
2023-02-28T07:23:11.742Z,50.92
2023-02-28T07:25:38.123Z,50.77
2023-02-28T07:28:04.536Z,49.94
2023-02-28T07:30:31.001Z,50.30
2023-02-28T07:32:57.368Z,49.85
2023-02-28T07:35:23.843Z,50.37
2023-02-28T07:37:50.746Z,49.97
2023-02-28T07:40:17.210Z,50.76
2023-02-28T07:42:43.624Z,50.07
2023-02-28T07:45:10.065Z,49.77
2023-02-28T07:47:36.665Z,49.97
2023-02-28T07:50:03.110Z,50.48
2023-02-28T07:52:29.517Z,50.34
2023-02-28T07:54:56.007Z,49.88
2023-02-28T07:57:22.471Z,50.88
2023-02-28T07:59:48.893Z,50.44
2023-02-28T08:02:15.356Z,50.65
2023-02-28T08:04:41.828Z,50.24
2023-02-28T08:07:08.229Z,50.39
2023-02-28T08:09:34.641Z,50.53
2023-02-28T08:12:01.065Z,51.06
2023-02-28T08:14:27.509Z,51.86
2023-02-28T08:16:54.080Z,51.69
2023-02-28T08:19:20.684Z,51.44
2023-02-28T08:21:47.126Z,51.17
2023-02-28T08:24:13.628Z,50.50
2023-02-28T08:26:40.087Z,50.43
2023-02-28T08:29:06.483Z,49.39
2023-02-28T08:31:33.103Z,49.67
2023-02-28T08:33:59.646Z,49.97
2023-02-28T08:36:26.077Z,48.80
2023-02-28T08:38:52.574Z,48.44
2023-02-28T08:41:18.983Z,47.53
2023-02-28T08:43:45.370Z,48.26
2023-02-28T08:46:11.843Z,47.10
2023-02-28T08:48:38.286Z,46.54
2023-02-28T08:51:07.573Z,46.42
2023-02-28T08:53:34.795Z,47.16
2023-02-28T08:56:01.243Z,46.43
2023-02-28T08:58:27.655Z,46.69
2023-02-28T09:00:54.154Z,46.28
2023-02-28T09:03:22.595Z,46.78
2023-02-28T09:05:50.061Z,47.26
2023-02-28T09:08:16.497Z,47.92
2023-02-28T09:10:42.895Z,49.91
2023-02-28T09:13:09.307Z,50.61
2023-02-28T09:15:35.735Z,50.44
2023-02-28T09:18:02.167Z,49.25
2023-02-28T09:20:28.616Z,48.77
2023-02-28T09:22:54.989Z,48.17
2023-02-28T09:25:21.434Z,48.67
2023-02-28T09:27:47.871Z,48.33
2023-02-28T09:30:14.290Z,47.76
2023-02-28T09:32:40.683Z,48.51
2023-02-28T09:35:07.194Z,49.42
2023-02-28T09:37:33.613Z,49.45
2023-02-28T09:40:00.077Z,48.15
2023-02-28T09:42:26.539Z,48.39
2023-02-28T09:44:53.014Z,47.44
2023-02-28T09:47:19.667Z,47.20
2023-02-28T09:49:46.079Z,46.61
2023-02-28T09:52:12.508Z,46.72
2023-02-28T09:54:38.956Z,46.70
2023-02-28T09:57:05.391Z,47.35
2023-02-28T09:59:31.810Z,48.42
2023-02-28T10:01:58.302Z,47.64
2023-02-28T10:04:24.771Z,47.92
2023-02-28T10:06:52.027Z,46.75
2023-02-28T10:09:18.461Z,46.75
2023-02-28T10:11:44.955Z,48.89
2023-02-28T10:14:11.418Z,47.98
2023-02-28T10:16:37.853Z,46.86
2023-02-28T10:19:04.543Z,46.20
2023-02-28T10:21:31.021Z,46.25
2023-02-28T10:23:57.397Z,47.33
2023-02-28T10:26:23.789Z,48.05
2023-02-28T10:28:50.216Z,46.94
2023-02-28T10:31:16.624Z,49.16
2023-02-28T10:33:43.019Z,47.34
2023-02-28T10:36:09.530Z,46.96
2023-02-28T10:38:36.126Z,46.26
2023-02-28T10:41:02.539Z,45.62
2023-02-28T10:43:28.912Z,45.91
2023-02-28T10:45:55.346Z,45.02
2023-02-28T10:48:21.749Z,45.07
2023-02-28T10:50:48.129Z,44.38
2023-02-28T10:53:14.600Z,44.09
2023-02-28T10:55:41.084Z,45.18
2023-02-28T10:58:07.496Z,45.43
2023-02-28T11:00:33.893Z,45.04
2023-02-28T11:03:00.321Z,44.93
2023-02-28T11:05:26.712Z,44.79
2023-02-28T11:07:53.651Z,44.78
2023-02-28T11:10:20.132Z,44.58
2023-02-28T11:12:52.262Z,44.03
2023-02-28T11:15:19.557Z,43.25
2023-02-28T11:17:45.968Z,43.24
2023-02-28T11:20:12.357Z,43.62
2023-02-28T11:22:38.730Z,43.92
2023-02-28T11:25:05.139Z,44.28
2023-02-28T11:27:31.554Z,43.47
2023-02-28T11:29:57.973Z,42.53
2023-02-28T11:32:24.458Z,41.56
2023-02-28T11:34:50.919Z,41.67
2023-02-28T11:37:17.311Z,42.79
2023-02-28T11:39:43.822Z,44.11
2023-02-28T11:42:10.263Z,42.47
2023-02-28T11:44:36.687Z,41.51
2023-02-28T11:47:03.083Z,40.62
2023-02-28T11:49:29.535Z,41.26
2023-02-28T11:51:56.094Z,41.21
2023-02-28T11:54:22.610Z,42.54
2023-02-28T11:56:49.034Z,42.67
2023-02-28T11:59:15.426Z,41.25
2023-02-28T12:01:41.864Z,40.67
2023-02-28T12:04:08.274Z,39.83
2023-02-28T12:06:34.707Z,40.13
2023-02-28T12:09:01.338Z,39.97
2023-02-28T12:11:28.343Z,40.86
2023-02-28T12:13:55.159Z,40.94
2023-02-28T12:16:21.585Z,42.41
2023-02-28T12:18:48.157Z,41.53
2023-02-28T12:21:14.576Z,41.63
2023-02-28T12:23:40.983Z,41.05
2023-02-28T12:26:07.463Z,41.66
2023-02-28T12:28:33.868Z,41.33
2023-02-28T12:31:00.362Z,42.35
2023-02-28T12:33:26.823Z,43.31
2023-02-28T12:35:53.317Z,43.06
2023-02-28T12:38:19.794Z,42.55
2023-02-28T12:40:46.282Z,41.72
2023-02-28T12:43:12.739Z,41.77
2023-02-28T12:45:39.401Z,41.60
2023-02-28T12:48:05.941Z,40.98
2023-02-28T12:50:32.381Z,41.18
2023-02-28T12:52:58.807Z,41.21
2023-02-28T12:55:25.244Z,41.64
2023-02-28T12:57:51.645Z,41.58
2023-02-28T13:00:18.154Z,41.86
2023-02-28T13:02:44.625Z,41.74
2023-02-28T13:05:11.068Z,41.69
2023-02-28T13:07:37.477Z,42.94
2023-02-28T13:10:03.883Z,42.07
2023-02-28T13:12:30.265Z,42.67
2023-02-28T13:14:56.704Z,42.48
2023-02-28T13:17:23.148Z,41.78
2023-02-28T13:19:49.570Z,42.42
2023-02-28T13:22:15.975Z,41.98
2023-02-28T13:24:42.333Z,41.02
2023-02-28T13:27:10.436Z,40.65
2023-02-28T13:29:37.038Z,41.17
2023-02-28T13:32:03.566Z,40.78
2023-02-28T13:34:30.065Z,40.32
2023-02-28T13:36:56.500Z,40.11
2023-02-28T13:39:23.043Z,40.58
2023-02-28T13:41:49.559Z,40.96
2023-02-28T13:44:15.961Z,41.70
2023-02-28T13:46:42.348Z,41.77
2023-02-28T13:49:08.782Z,42.58
2023-02-28T13:51:35.378Z,41.63
2023-02-28T13:54:01.824Z,43.09
2023-02-28T13:56:28.457Z,43.11
2023-02-28T13:58:55.153Z,42.37
2023-02-28T14:01:21.538Z,42.63
2023-02-28T14:03:48.019Z,41.40
2023-02-28T14:06:14.481Z,42.13
2023-02-28T14:08:40.862Z,44.13
2023-02-28T14:11:07.332Z,44.23
2023-02-28T14:13:33.757Z,43.93
2023-02-28T14:16:00.265Z,42.46
2023-02-28T14:18:27.349Z,43.26
2023-02-28T14:20:53.995Z,44.31
2023-02-28T14:23:20.381Z,43.97
2023-02-28T14:25:46.873Z,44.10
2023-02-28T14:28:13.285Z,44.32
2023-02-28T14:30:39.965Z,44.13
2023-02-28T14:33:06.385Z,43.88
2023-02-28T14:35:32.971Z,44.66
2023-02-28T14:37:59.403Z,44.85
2023-02-28T14:40:25.956Z,44.06
2023-02-28T14:42:52.500Z,43.74
2023-02-28T14:45:18.904Z,44.59
2023-02-28T14:47:45.318Z,44.26
2023-02-28T14:50:11.773Z,43.59
2023-02-28T14:52:38.154Z,42.94
2023-02-28T14:55:04.717Z,43.04
2023-02-28T14:57:31.160Z,43.34
2023-02-28T14:59:57.648Z,42.77
2023-02-28T15:02:24.220Z,43.10
2023-02-28T15:04:50.646Z,42.69
2023-02-28T15:07:17.033Z,43.32
2023-02-28T15:09:43.486Z,43.80
2023-02-28T15:12:09.952Z,43.92
2023-02-28T15:14:36.346Z,44.53
2023-02-28T15:17:02.758Z,44.91
2023-02-28T15:19:29.430Z,45.52
2023-02-28T15:21:55.803Z,45.15
2023-02-28T15:24:22.370Z,45.05
2023-02-28T15:26:48.775Z,45.71
2023-02-28T15:29:15.162Z,46.36
2023-02-28T15:31:56.075Z,46.19
2023-02-28T15:34:26.495Z,46.03
2023-02-28T15:36:54.884Z,46.03
2023-02-28T15:39:21.446Z,46.26
2023-02-28T15:41:47.892Z,45.97
2023-02-28T15:44:14.336Z,45.78
2023-02-28T15:46:40.760Z,45.02
2023-02-28T15:49:07.260Z,45.41
2023-02-28T15:51:33.767Z,45.56
2023-02-28T15:54:00.187Z,45.07
2023-02-28T15:56:26.608Z,45.31
2023-02-28T15:58:53.013Z,46.96
2023-02-28T16:01:19.394Z,46.25
2023-02-28T16:03:45.835Z,45.12
2023-02-28T16:06:12.471Z,44.55
2023-02-28T16:08:38.925Z,45.11
2023-02-28T16:11:05.401Z,45.57
2023-02-28T16:13:31.839Z,45.53
2023-02-28T16:15:58.249Z,46.34
2023-02-28T16:18:24.619Z,45.75
2023-02-28T16:20:51.055Z,46.24
2023-02-28T16:23:17.479Z,47.44
2023-02-28T16:25:44.179Z,47.52
2023-02-28T16:28:10.714Z,47.55
2023-02-28T16:30:37.488Z,47.70
2023-02-28T16:33:04.079Z,47.79
2023-02-28T16:35:30.462Z,47.89
2023-02-28T16:37:56.979Z,47.42
2023-02-28T16:40:23.486Z,47.34
2023-02-28T16:42:49.897Z,48.36
2023-02-28T16:45:16.342Z,48.42
2023-02-28T16:47:42.868Z,48.76
2023-02-28T16:50:09.473Z,48.99
2023-02-28T16:52:35.857Z,49.27
2023-02-28T16:55:02.297Z,49.43
2023-02-28T16:57:28.745Z,49.31
2023-02-28T16:59:55.162Z,50.02
2023-02-28T17:02:21.976Z,50.61
2023-02-28T17:04:48.695Z,50.59
2023-02-28T17:07:15.182Z,49.85
2023-02-28T17:09:43.991Z,50.33
2023-02-28T17:12:11.529Z,50.33
2023-02-28T17:14:37.912Z,50.53
2023-02-28T17:17:04.319Z,51.11
2023-02-28T17:19:30.910Z,50.98
2023-02-28T17:21:57.318Z,51.31
2023-02-28T17:24:30.867Z,52.17
2023-02-28T17:26:57.949Z,52.06
2023-02-28T17:29:24.907Z,53.03
2023-02-28T17:31:51.385Z,52.35
2023-02-28T17:34:20.536Z,52.22
2023-02-28T17:36:47.445Z,52.46
2023-02-28T17:39:13.852Z,52.78
2023-02-28T17:41:40.319Z,53.53
2023-02-28T17:44:06.718Z,53.51
2023-02-28T17:46:36.098Z,52.30
2023-02-28T17:49:02.565Z,51.68
2023-02-28T17:51:29.191Z,52.08
2023-02-28T17:53:55.610Z,51.77
2023-02-28T17:56:22.041Z,52.21
2023-02-28T17:58:48.501Z,51.43
2023-02-28T18:01:15.723Z,52.15
2023-02-28T18:03:42.234Z,52.17
2023-02-28T18:06:09.221Z,52.19
2023-02-28T18:08:35.661Z,52.83
2023-02-28T18:11:02.261Z,52.12
2023-02-28T18:13:28.714Z,51.94
2023-02-28T18:15:55.281Z,51.86
2023-02-28T18:18:21.702Z,52.53
2023-02-28T18:20:48.593Z,53.10
2023-02-28T18:23:15.915Z,52.48
2023-02-28T18:25:42.388Z,52.72
2023-02-28T18:28:08.836Z,53.03
2023-02-28T18:30:38.477Z,53.01
2023-02-28T18:33:04.989Z,53.51
2023-02-28T18:35:31.617Z,53.12
2023-02-28T18:37:58.073Z,52.65
2023-02-28T18:40:27.549Z,52.90
2023-02-28T18:42:56.343Z,52.60
2023-02-28T18:45:22.738Z,53.18
2023-02-28T18:47:50.151Z,53.61
2023-02-28T18:50:16.789Z,54.25
2023-02-28T18:52:43.585Z,54.48
2023-02-28T18:55:13.578Z,54.00
2023-02-28T18:57:42.884Z,53.36
2023-02-28T19:00:09.942Z,53.64
2023-02-28T19:02:45.746Z,53.72
2023-02-28T19:05:12.198Z,53.81
2023-02-28T19:07:42.371Z,53.24
2023-02-28T19:10:08.826Z,53.57
2023-02-28T19:12:35.254Z,54.51
2023-02-28T19:15:01.868Z,54.87
2023-02-28T19:17:28.841Z,54.55
2023-02-28T19:19:55.364Z,54.30
2023-02-28T19:22:22.252Z,55.04
2023-02-28T19:24:56.918Z,55.78
2023-02-28T19:27:23.863Z,55.60
2023-02-28T19:29:50.771Z,55.90
2023-02-28T19:32:19.800Z,55.46
2023-02-28T19:34:46.381Z,55.09
2023-02-28T19:37:13.021Z,54.81
2023-02-28T19:39:39.422Z,55.62
2023-02-28T19:42:05.947Z,55.74
2023-02-28T19:44:32.846Z,54.69
2023-02-28T19:46:59.369Z,54.96
2023-02-28T19:49:26.093Z,55.83
2023-02-28T19:51:53.296Z,56.26
2023-02-28T19:54:19.711Z,56.04
2023-02-28T19:56:46.131Z,56.06
2023-02-28T19:59:21.219Z,55.58
2023-02-28T20:01:48.621Z,55.57
2023-02-28T20:04:15.210Z,55.53
2023-02-28T20:06:41.784Z,55.96
2023-02-28T20:09:08.685Z,55.37
2023-02-28T20:11:35.239Z,55.23
2023-02-28T20:14:03.697Z,55.85
2023-02-28T20:16:30.540Z,55.39
2023-02-28T20:18:57.523Z,55.49
2023-02-28T20:21:24.507Z,55.15
2023-02-28T20:23:55.774Z,55.54
2023-02-28T20:26:22.401Z,55.42
2023-02-28T20:28:48.815Z,56.64
2023-02-28T20:31:15.264Z,56.02
2023-02-28T20:33:41.973Z,56.48
2023-02-28T20:36:12.916Z,56.40
2023-02-28T20:38:48.150Z,55.75
2023-02-28T20:41:15.586Z,56.22
2023-02-28T20:43:42.108Z,56.36
2023-02-28T20:46:08.643Z,56.85
2023-02-28T20:48:35.618Z,55.91
2023-02-28T20:51:04.272Z,57.35
2023-02-28T20:53:31.378Z,55.77
2023-02-28T20:55:57.980Z,56.49
2023-02-28T20:58:24.404Z,56.35
2023-02-28T21:00:51.348Z,57.22
2023-02-28T21:03:18.095Z,56.84
2023-02-28T21:05:44.563Z,56.71
2023-02-28T21:08:10.986Z,57.16
2023-02-28T21:10:37.437Z,57.11
2023-02-28T21:13:03.946Z,57.05
2023-02-28T21:15:30.444Z,56.79
2023-02-28T21:17:59.795Z,56.84
2023-02-28T21:20:26.268Z,56.90
2023-02-28T21:22:55.428Z,57.13
2023-02-28T21:25:21.892Z,56.73
2023-02-28T21:27:48.323Z,57.52
2023-02-28T21:30:15.060Z,57.75
2023-02-28T21:32:41.698Z,57.72
2023-02-28T21:35:08.149Z,57.68
2023-02-28T21:37:34.528Z,57.70
2023-02-28T21:40:00.971Z,58.53
2023-02-28T21:42:27.551Z,58.81
2023-02-28T21:44:53.939Z,57.91
2023-02-28T21:47:20.384Z,57.66
2023-02-28T21:49:47.028Z,57.83
2023-02-28T21:52:13.425Z,57.28
2023-02-28T21:54:39.941Z,57.53
2023-02-28T21:57:06.388Z,56.69
2023-02-28T21:59:33.115Z,57.48
2023-02-28T22:01:59.581Z,57.69
2023-02-28T22:04:26.000Z,56.64
2023-02-28T22:06:52.475Z,56.39
2023-02-28T22:09:18.880Z,56.26
2023-02-28T22:11:45.422Z,55.78
2023-02-28T22:14:12.630Z,55.66
2023-02-28T22:16:50.662Z,54.74
2023-02-28T22:19:18.636Z,54.88
2023-02-28T22:21:45.072Z,53.64
2023-02-28T22:24:11.582Z,53.23
2023-02-28T22:26:38.035Z,53.87
2023-02-28T22:29:04.452Z,54.08
2023-02-28T22:31:30.991Z,56.50
2023-02-28T22:33:57.470Z,56.69
2023-02-28T22:36:23.853Z,55.81
2023-02-28T22:38:50.302Z,54.74
2023-02-28T22:41:16.734Z,54.26
2023-02-28T22:43:43.228Z,54.87
2023-02-28T22:46:09.669Z,54.94
2023-02-28T22:48:36.041Z,55.24
2023-02-28T22:51:02.475Z,55.86
2023-02-28T22:53:28.874Z,55.54
2023-02-28T22:55:55.259Z,55.25
2023-02-28T22:58:21.898Z,54.74
2023-02-28T23:00:48.308Z,55.24
2023-02-28T23:03:14.741Z,55.20
2023-02-28T23:05:41.137Z,54.34
2023-02-28T23:08:07.514Z,54.22
2023-02-28T23:10:33.925Z,55.52
2023-02-28T23:13:00.303Z,55.18
2023-02-28T23:15:26.784Z,54.46
2023-02-28T23:17:53.206Z,55.56
2023-02-28T23:20:19.625Z,54.48
2023-02-28T23:22:46.041Z,54.06
2023-02-28T23:25:12.444Z,54.10
2023-02-28T23:27:38.963Z,53.54
2023-02-28T23:30:05.398Z,54.39
2023-02-28T23:32:31.875Z,54.54
2023-02-28T23:34:58.332Z,54.55
2023-02-28T23:37:24.715Z,54.87
2023-02-28T23:39:51.108Z,54.35
2023-02-28T23:42:17.523Z,55.55
2023-02-28T23:44:44.103Z,55.12
2023-02-28T23:47:10.547Z,54.78
2023-02-28T23:49:36.957Z,53.46
2023-02-28T23:52:03.366Z,53.24
2023-02-28T23:54:29.889Z,53.66
2023-02-28T23:56:56.300Z,53.46
2023-02-28T23:59:22.689Z,53.63
